Time;durP1;ratioP1;P1;durP2;ratioP2;P2;SDS_P1;SDS_P2;PMS_P1;PMS_P2;Temp;Humidity;BMP_temperature;BMP_pressure;BME280_temperature;BME280_humidity;BME280_pressure;Samples;Min_cycle;Max_cycle;Signal;HPM_P1;HPM_P2
2023/01/19 00:01:52;;;;;;;52.37;34.77;;;2.80;99.90;;;;;;10451839;28;20229;-82
2023/01/19 00:06:55;;;;;;;56.67;36.53;;;3.00;99.90;;;;;;10452477;28;20300;-82
2023/01/19 00:11:58;;;;;;;64.00;38.87;;;2.80;99.90;;;;;;10452576;28;20668;-82
2023/01/19 00:17:01;;;;;;;56.13;36.67;;;2.70;99.90;;;;;;10432847;28;20736;-82
2023/01/19 00:22:04;;;;;;;66.23;39.60;;;3.00;99.90;;;;;;10467073;28;20238;-82
2023/01/19 00:27:07;;;;;;;67.60;39.70;;;2.90;99.90;;;;;;10453143;28;20233;-82
2023/01/19 00:32:10;;;;;;;60.70;38.03;;;2.90;99.90;;;;;;10467937;28;20211;-82
2023/01/19 00:37:12;;;;;;;54.77;35.13;;;2.80;99.90;;;;;;10450426;28;20269;-82
2023/01/19 00:47:38;;;;;;;62.93;36.50;;;2.60;99.90;;;;;;10453106;28;20233;-82
2023/01/19 00:52:41;;;;;;;62.63;37.83;;;2.40;99.90;;;;;;10492603;28;20226;-82
2023/01/19 00:57:44;;;;;;;60.57;37.00;;;2.50;99.90;;;;;;10455365;28;20321;-82
2023/01/19 01:02:49;;;;;;;61.13;37.13;;;2.30;99.90;;;;;;10415753;28;20231;-82
2023/01/19 01:07:52;;;;;;;52.90;34.77;;;2.50;99.90;;;;;;10450248;28;20662;-82
2023/01/19 01:12:55;;;;;;;66.97;38.53;;;3.10;99.90;;;;;;10458859;28;20242;-82
2023/01/19 01:18:00;;;;;;;47.33;31.10;;;2.80;99.90;;;;;;10458264;28;20250;-82
2023/01/19 01:23:02;;;;;;;59.07;38.77;;;3.90;99.90;;;;;;10450358;28;20227;-82
2023/01/19 01:28:07;;;;;;;60.07;37.93;;;4.70;99.90;;;;;;10463325;28;20226;-81
2023/01/19 01:33:13;;;;;;;66.10;41.97;;;4.10;99.90;;;;;;10470190;28;20234;-82
2023/01/19 01:38:15;;;;;;;55.57;37.73;;;3.80;99.90;;;;;;10449781;28;20308;-82
2023/01/19 01:43:21;;;;;;;63.33;37.63;;;3.10;99.90;;;;;;10466105;28;20230;-82
2023/01/19 01:48:29;;;;;;;55.40;35.53;;;3.10;99.90;;;;;;10471930;28;20238;-82
2023/01/19 01:53:33;;;;;;;44.60;29.43;;;3.00;99.90;;;;;;10448005;28;20707;-82
2023/01/19 01:58:37;;;;;;;58.17;36.47;;;2.60;99.90;;;;;;10468278;28;20307;-82
2023/01/19 02:03:40;;;;;;;58.23;35.93;;;3.00;99.90;;;;;;10472992;28;20293;-82
2023/01/19 02:14:10;;;;;;;56.30;36.13;;;2.60;99.90;;;;;;10461986;28;20320;-82
2023/01/19 02:19:19;;;;;;;45.67;29.30;;;2.60;99.90;;;;;;10447518;28;20667;-82
2023/01/19 02:24:22;;;;;;;55.70;34.83;;;3.00;99.90;;;;;;10448741;28;20617;-82
2023/01/19 02:29:26;;;;;;;49.33;31.87;;;3.10;99.90;;;;;;10451711;28;20595;-82
2023/01/19 02:34:30;;;;;;;53.37;32.77;;;3.70;99.90;;;;;;10448635;28;20231;-82
2023/01/19 02:39:37;;;;;;;58.63;35.57;;;4.00;99.90;;;;;;10481733;28;20631;-82
2023/01/19 02:44:44;;;;;;;54.47;34.40;;;3.50;99.90;;;;;;10458336;28;20234;-82
2023/01/19 02:49:59;;;;;;;51.03;31.60;;;3.00;99.90;;;;;;10476696;28;20671;-82
2023/01/19 02:55:19;;;;;;;54.00;33.97;;;3.20;99.90;;;;;;10474258;28;20207;-82
2023/01/19 03:00:50;;;;;;;50.67;29.40;;;3.10;99.90;;;;;;10454870;28;20659;-82
2023/01/19 03:06:00;;;;;;;49.37;31.67;;;3.10;99.90;;;;;;10455459;28;20199;-82
2023/01/19 03:11:05;;;;;;;46.43;30.37;;;3.50;99.90;;;;;;10453904;28;21083;-82
2023/01/19 03:16:33;;;;;;;52.60;33.43;;;4.20;99.90;;;;;;10455017;28;20676;-82
2023/01/19 03:21:38;;;;;;;51.23;32.43;;;3.80;99.90;;;;;;10496162;28;20253;-82
2023/01/19 03:26:56;;;;;;;48.37;31.90;;;3.30;99.90;;;;;;10479843;28;20241;-82
2023/01/19 03:32:04;;;;;;;44.10;28.87;;;3.20;99.90;;;;;;10412706;28;20242;-82
2023/01/19 03:37:10;;;;;;;50.93;31.53;;;3.30;99.90;;;;;;10416671;28;20264;-82
2023/01/19 03:42:15;;;;;;;48.13;31.40;;;3.10;99.90;;;;;;10474993;28;20257;-82
2023/01/19 03:47:19;;;;;;;50.07;30.27;;;2.90;99.90;;;;;;10453999;28;20280;-82
2023/01/19 03:52:31;;;;;;;45.23;30.10;;;2.90;99.90;;;;;;10451470;28;20642;-82
2023/01/19 03:57:34;;;;;;;50.37;30.73;;;3.30;99.90;;;;;;10427390;28;20275;-82
2023/01/19 04:02:36;;;;;;;45.73;29.47;;;3.80;99.90;;;;;;10435569;28;20761;-82
2023/01/19 04:07:39;;;;;;;47.40;28.87;;;3.90;99.90;;;;;;10434865;28;20215;-82
2023/01/19 04:12:41;;;;;;;50.27;30.27;;;4.50;99.90;;;;;;10458473;28;20768;-82
2023/01/19 04:17:44;;;;;;;46.73;28.67;;;4.30;99.90;;;;;;10492425;28;20689;-82
2023/01/19 04:22:47;;;;;;;42.83;28.93;;;4.30;99.90;;;;;;10489777;28;20288;-82
2023/01/19 04:27:54;;;;;;;46.53;28.73;;;4.90;99.90;;;;;;10452004;28;20328;-82
2023/01/19 04:32:58;;;;;;;44.97;27.23;;;5.10;99.90;;;;;;10486630;28;20650;-82
2023/01/19 04:38:01;;;;;;;44.87;26.50;;;5.10;99.90;;;;;;10449823;28;20297;-82
2023/01/19 04:43:04;;;;;;;44.77;27.20;;;5.60;99.90;;;;;;10457969;28;20244;-82
2023/01/19 04:48:06;;;;;;;35.83;22.97;;;6.70;99.90;;;;;;10451461;28;20300;-82
2023/01/19 04:53:09;;;;;;;44.27;29.00;;;6.90;99.90;;;;;;10464300;28;20239;-82
2023/01/19 04:58:12;;;;;;;32.70;20.70;;;6.40;99.90;;;;;;10450036;28;20246;-82
2023/01/19 05:03:15;;;;;;;30.47;21.03;;;7.10;99.90;;;;;;10449207;28;20234;-82
2023/01/19 05:08:17;;;;;;;29.00;18.70;;;6.80;99.90;;;;;;10450744;28;20694;-82
2023/01/19 05:13:20;;;;;;;29.33;17.47;;;7.40;99.90;;;;;;10448264;28;20272;-82
2023/01/19 05:18:22;;;;;;;35.30;21.50;;;7.30;99.90;;;;;;10450018;28;20250;-83
2023/01/19 05:23:25;;;;;;;30.40;20.00;;;6.60;99.90;;;;;;10450073;28;20292;-83
2023/01/19 05:28:31;;;;;;;32.07;21.33;;;6.60;99.90;;;;;;10448920;28;20288;-83
2023/01/19 05:33:34;;;;;;;34.47;21.80;;;6.30;99.90;;;;;;10465566;28;20238;-83
2023/01/19 05:38:36;;;;;;;32.33;19.97;;;6.00;99.90;;;;;;10463341;28;20776;-83
2023/01/19 05:43:39;;;;;;;27.37;16.87;;;6.90;99.90;;;;;;10458910;28;20227;-83
2023/01/19 05:48:41;;;;;;;34.20;20.13;;;6.60;99.90;;;;;;10461022;28;20242;-84
2023/01/19 05:53:44;;;;;;;35.87;20.77;;;8.20;99.90;;;;;;10448165;28;20282;-83
2023/01/19 05:58:46;;;;;;;33.30;19.83;;;7.70;99.90;;;;;;10448868;28;20289;-84
2023/01/19 06:03:49;;;;;;;32.17;19.40;;;7.30;99.90;;;;;;10448949;28;20226;-84
2023/01/19 06:08:51;;;;;;;33.40;21.40;;;6.60;99.90;;;;;;10439339;28;20679;-84
2023/01/19 06:13:54;;;;;;;30.47;19.57;;;5.80;99.90;;;;;;10448424;28;20316;-84
2023/01/19 06:18:57;;;;;;;33.73;20.70;;;5.80;99.90;;;;;;10462801;28;20258;-83
2023/01/19 06:24:00;;;;;;;31.57;19.57;;;5.20;99.90;;;;;;10457038;28;20230;-83
2023/01/19 06:29:03;;;;;;;32.60;20.40;;;4.80;99.90;;;;;;10467687;28;20306;-83
2023/01/19 06:34:05;;;;;;;33.47;19.67;;;4.90;99.90;;;;;;10462486;28;20304;-83
2023/01/19 06:39:09;;;;;;;34.10;19.70;;;4.60;99.90;;;;;;10456683;28;20300;-83
2023/01/19 06:44:12;;;;;;;35.00;21.10;;;4.40;99.90;;;;;;10456303;28;20234;-84
2023/01/19 06:49:14;;;;;;;31.80;19.00;;;3.70;99.90;;;;;;10455471;28;20308;-84
2023/01/19 06:54:17;;;;;;;31.53;17.60;;;3.50;99.90;;;;;;10456130;28;20259;-88
2023/01/19 06:59:19;;;;;;;34.50;19.03;;;5.60;99.90;;;;;;10437953;28;20280;-89
2023/01/19 07:04:22;;;;;;;26.17;16.67;;;6.00;99.90;;;;;;10455232;28;20700;-88
2023/01/19 07:09:24;;;;;;;28.97;17.70;;;5.80;99.90;;;;;;10456229;28;20615;-88
2023/01/19 07:14:32;;;;;;;31.73;18.03;;;4.90;99.90;;;;;;10455343;28;20266;-87
2023/01/19 07:19:35;;;;;;;33.13;18.40;;;4.30;99.90;;;;;;10437685;28;20720;-89
2023/01/19 07:24:37;;;;;;;37.00;22.23;;;4.50;99.90;;;;;;10455198;28;20242;-90
2023/01/19 07:29:41;;;;;;;41.40;23.33;;;4.40;99.90;;;;;;10437321;28;20203;-89
2023/01/19 07:34:44;;;;;;;31.67;19.53;;;4.40;99.90;;;;;;10455248;28;20234;-89
2023/01/19 07:39:47;;;;;;;34.33;20.97;;;4.60;99.90;;;;;;10452509;28;20308;-90
2023/01/19 07:44:49;;;;;;;40.20;21.63;;;4.10;99.90;;;;;;10434831;28;20619;-89
2023/01/19 07:49:52;;;;;;;39.40;23.37;;;5.60;99.90;;;;;;10427252;28;20237;-89
2023/01/19 07:54:54;;;;;;;37.03;21.60;;;4.80;99.90;;;;;;10450320;28;20249;-89
2023/01/19 07:59:57;;;;;;;32.23;21.23;;;4.10;99.90;;;;;;10433086;28;20250;-89
2023/01/19 08:04:59;;;;;;;34.83;21.60;;;4.90;99.90;;;;;;10449885;28;20287;-89
2023/01/19 08:10:02;;;;;;;34.77;21.97;;;5.40;99.90;;;;;;10411909;28;20238;-90
2023/01/19 08:15:06;;;;;;;39.87;23.70;;;5.80;99.90;;;;;;10435794;28;20320;-89
2023/01/19 08:20:10;;;;;;;35.77;21.87;;;6.10;99.90;;;;;;10451851;28;20254;-88
2023/01/19 08:25:12;;;;;;;30.00;17.77;;;6.80;99.90;;;;;;10452611;28;20743;-90
2023/01/19 08:30:15;;;;;;;30.73;17.97;;;7.70;99.90;;;;;;10452088;28;21103;-89
2023/01/19 08:35:18;;;;;;;27.70;18.43;;;7.40;99.90;;;;;;10450293;28;20234;-89
2023/01/19 08:40:20;;;;;;;24.43;15.77;;;7.90;99.90;;;;;;10436923;28;20273;-89
2023/01/19 08:45:23;;;;;;;26.93;17.40;;;7.80;99.90;;;;;;10467105;28;20277;-89
2023/01/19 08:50:31;;;;;;;30.33;18.90;;;7.30;99.90;;;;;;10434360;28;20260;-89
2023/01/19 08:55:36;;;;;;;26.07;16.83;;;7.80;99.90;;;;;;10451546;28;20598;-90
2023/01/19 09:00:39;;;;;;;30.50;19.10;;;7.60;99.90;;;;;;10472232;28;20280;-90
2023/01/19 09:05:42;;;;;;;27.97;18.27;;;7.30;99.90;;;;;;10492949;28;20194;-90
2023/01/19 09:10:49;;;;;;;31.00;19.67;;;6.80;99.90;;;;;;10492824;28;20234;-90
2023/01/19 09:15:52;;;;;;;33.93;18.67;;;7.00;99.90;;;;;;10481482;28;20241;-91
2023/01/19 09:20:56;;;;;;;26.53;17.90;;;7.00;99.90;;;;;;10416520;28;20314;-90
2023/01/19 09:26:01;;;;;;;30.37;19.73;;;5.70;99.90;;;;;;10452249;28;20255;-89
2023/01/19 09:31:05;;;;;;;32.10;19.77;;;5.60;99.90;;;;;;10443292;28;20631;-89
2023/01/19 09:36:08;;;;;;;33.13;21.37;;;5.00;99.90;;;;;;10454631;28;20222;-89
2023/01/19 09:41:20;;;;;;;33.17;19.37;;;5.20;99.90;;;;;;10447537;28;20257;-89
2023/01/19 09:46:33;;;;;;;30.93;16.60;;;6.00;99.90;;;;;;10447407;28;20267;-88
2023/01/19 09:51:39;;;;;;;22.30;15.60;;;7.00;99.90;;;;;;10448281;28;20231;-89
2023/01/19 09:56:44;;;;;;;21.83;14.63;;;6.50;99.90;;;;;;10431946;28;20307;-88
2023/01/19 10:02:02;;;;;;;20.47;12.53;;;6.80;99.90;;;;;;10474782;28;20242;-88
2023/01/19 10:07:29;;;;;;;27.07;15.53;;;6.70;99.90;;;;;;10430769;28;20287;-88
2023/01/19 10:12:37;;;;;;;28.67;17.30;;;5.80;99.90;;;;;;10449172;28;20292;-88
2023/01/19 10:18:04;;;;;;;24.10;15.13;;;6.00;99.90;;;;;;10463913;28;20331;-89
2023/01/19 10:23:48;;;;;;;24.03;15.53;;;5.40;99.90;;;;;;10464807;28;20269;-88
2023/01/19 10:28:56;;;;;;;23.27;14.57;;;6.10;99.90;;;;;;10428725;28;20242;-89
2023/01/19 10:33:59;;;;;;;21.63;13.50;;;6.90;99.90;;;;;;10448785;28;20655;-88
2023/01/19 10:39:05;;;;;;;20.23;13.67;;;6.60;99.90;;;;;;10443765;28;20720;-89
2023/01/19 10:44:09;;;;;;;24.60;14.57;;;7.40;99.90;;;;;;10448816;28;20308;-88
2023/01/19 10:49:34;;;;;;;20.27;13.80;;;9.10;99.90;;;;;;10447228;28;20699;-89
2023/01/19 10:54:37;;;;;;;20.73;15.37;;;7.20;99.90;;;;;;10447686;28;20635;-89
2023/01/19 10:59:51;;;;;;;25.53;16.60;;;6.20;99.90;;;;;;10453415;28;20312;-88
2023/01/19 11:04:59;;;;;;;22.10;15.20;;;6.20;99.90;;;;;;10477734;28;20273;-88
2023/01/19 11:10:18;;;;;;;21.67;15.03;;;6.90;99.90;;;;;;10461513;28;20292;-88
2023/01/19 11:15:39;;;;;;;23.13;16.63;;;7.90;99.90;;;;;;10453930;28;20262;-88
2023/01/19 11:20:54;;;;;;;19.97;12.70;;;8.70;99.90;;;;;;10436294;28;20265;-88
2023/01/19 11:26:00;;;;;;;20.13;12.67;;;9.00;99.90;;;;;;10452074;28;20253;-89
2023/01/19 11:31:29;;;;;;;21.67;15.50;;;10.30;99.90;;;;;;10474938;28;20287;-88
2023/01/19 11:36:35;;;;;;;22.67;15.73;;;9.90;99.90;;;;;;10456559;28;20279;-88
2023/01/19 11:41:38;;;;;;;21.20;14.80;;;9.90;99.90;;;;;;10454880;28;20254;-89
2023/01/19 11:46:45;;;;;;;25.77;16.90;;;7.80;99.90;;;;;;10452961;28;20764;-89
2023/01/19 11:51:56;;;;;;;27.00;16.53;;;7.10;99.90;;;;;;10453129;28;20238;-90
2023/01/19 11:57:00;;;;;;;25.97;16.83;;;6.50;99.90;;;;;;10467840;28;20293;-91
2023/01/19 12:02:12;;;;;;;25.40;17.30;;;6.40;99.90;;;;;;10471286;28;20653;-91
2023/01/19 12:07:19;;;;;;;25.77;16.40;;;7.40;99.90;;;;;;10452794;28;20260;-89
2023/01/19 12:12:25;;;;;;;24.93;16.93;;;8.90;99.90;;;;;;10451414;28;20673;-89
2023/01/19 12:17:39;;;;;;;21.73;15.10;;;8.40;99.90;;;;;;10450710;28;20912;-90
2023/01/19 12:22:49;;;;;;;24.63;14.93;;;8.10;99.90;;;;;;10452543;28;20300;-91
2023/01/19 12:27:53;;;;;;;22.60;15.37;;;8.30;99.90;;;;;;10434246;28;20234;-90
2023/01/19 12:33:20;;;;;;;25.00;15.80;;;8.60;99.90;;;;;;10452708;28;20242;-90
2023/01/19 12:38:43;;;;;;;26.90;16.13;;;9.60;99.90;;;;;;10461044;28;20224;-93
2023/01/19 12:44:09;;;;;;;23.47;16.43;;;9.70;99.70;;;;;;10405968;28;20710;-92
2023/01/19 12:49:27;;;;;;;28.60;17.93;;;8.30;99.90;;;;;;10427608;28;20683;-91
2023/01/19 12:54:32;;;;;;;25.67;17.57;;;8.40;99.90;;;;;;10466248;28;20238;-94
2023/01/19 12:59:37;;;;;;;44.57;28.10;;;7.20;99.90;;;;;;10442664;28;20299;-93
2023/01/19 13:05:00;;;;;;;32.90;20.97;;;5.80;99.90;;;;;;10473941;28;20648;-93
2023/01/19 13:10:40;;;;;;;26.80;18.00;;;6.40;99.90;;;;;;10443996;28;20234;-93
2023/01/19 13:15:43;;;;;;;29.23;16.90;;;6.90;99.90;;;;;;10415981;28;20262;-93
2023/01/19 13:20:52;;;;;;;36.37;23.03;;;7.50;99.90;;;;;;10473574;28;20261;-94
2023/01/19 13:26:05;;;;;;;22.73;17.10;;;6.40;99.90;;;;;;10426801;28;20222;-92
2023/01/19 13:31:09;;;;;;;30.87;19.70;;;5.90;99.90;;;;;;10458593;28;20246;-92
2023/01/19 13:36:20;;;;;;;38.57;22.73;;;5.30;99.90;;;;;;10439965;28;20231;-92
2023/01/19 13:41:26;;;;;;;30.90;21.10;;;4.70;99.90;;;;;;10471370;28;20261;-93
2023/01/19 13:46:29;;;;;;;37.77;25.67;;;5.10;99.90;;;;;;10475071;28;20234;-91
2023/01/19 13:51:32;;;;;;;46.90;29.37;;;5.30;99.90;;;;;;10490473;28;20233;-92
2023/01/19 13:56:35;;;;;;;48.67;29.50;;;4.20;99.90;;;;;;10476366;28;20629;-93
2023/01/19 14:01:40;;;;;;;40.77;24.33;;;3.40;99.90;;;;;;10448368;28;20323;-94
2023/01/19 14:06:45;;;;;;;46.00;26.90;;;4.90;99.90;;;;;;10427875;28;20239;-92
2023/01/19 14:12:09;;;;;;;33.60;20.77;;;4.30;99.90;;;;;;10477255;28;20229;-92
2023/01/19 14:17:29;;;;;;;39.40;26.80;;;5.50;99.90;;;;;;10433758;28;20721;-93
2023/01/19 14:22:40;;;;;;;43.13;27.43;;;5.30;99.90;;;;;;10478626;28;20254;-93
2023/01/19 14:27:43;;;;;;;41.30;28.23;;;4.00;99.90;;;;;;10493425;28;20206;-94
2023/01/19 14:32:46;;;;;;;41.40;26.70;;;3.20;99.90;;;;;;10469123;28;20206;-94
2023/01/19 14:37:50;;;;;;;38.57;26.07;;;3.20;99.90;;;;;;10449947;28;20211;-90
2023/01/19 14:43:05;;;;;;;27.30;19.03;;;2.60;99.90;;;;;;10469898;28;20250;-92
2023/01/19 14:48:17;;;;;;;37.10;24.33;;;5.40;99.90;;;;;;10456903;28;20274;-92
2023/01/19 14:53:23;;;;;;;40.77;24.23;;;3.70;99.90;;;;;;10492197;28;20667;-91
2023/01/19 14:58:28;;;;;;;42.47;27.73;;;2.90;99.90;;;;;;10455403;28;20238;-92
2023/01/19 15:03:32;;;;;;;42.87;29.17;;;2.50;99.90;;;;;;10427919;28;20305;-92
2023/01/19 15:08:48;;;;;;;41.63;25.43;;;1.90;99.90;;;;;;10442757;28;20351;-92
2023/01/19 15:13:51;;;;;;;37.57;24.63;;;1.40;99.90;;;;;;10418270;28;20258;-91
2023/01/19 15:18:54;;;;;;;32.60;21.87;;;1.10;99.90;;;;;;10454647;28;20256;-92
2023/01/19 15:23:57;;;;;;;35.13;24.20;;;1.20;99.90;;;;;;10456863;28;20633;-92
2023/01/19 15:29:00;;;;;;;47.17;28.20;;;1.40;99.90;;;;;;10483278;28;20195;-93
2023/01/19 15:34:02;;;;;;;46.90;28.33;;;1.50;99.90;;;;;;10489253;28;20264;-93
2023/01/19 15:39:06;;;;;;;43.20;27.47;;;1.00;99.90;;;;;;10119140;28;9999661;-90
2023/01/19 15:44:09;;;;;;;38.63;26.23;;;1.20;99.90;;;;;;10479137;28;21037;-91
2023/01/19 15:49:12;;;;;;;64.73;38.90;;;1.40;99.90;;;;;;10462859;28;20237;-91
2023/01/19 15:54:16;;;;;;;87.37;49.90;;;1.50;99.90;;;;;;10492746;28;20236;-91
2023/01/19 15:59:18;;;;;;;94.53;51.73;;;2.10;99.90;;;;;;10457371;28;20210;-91
2023/01/19 16:04:21;;;;;;;83.23;47.20;;;0.90;99.90;;;;;;10449936;28;20250;-90
2023/01/19 16:09:23;;;;;;;77.27;44.50;;;0.30;99.90;;;;;;10449907;28;20336;-92
2023/01/19 16:14:26;;;;;;;67.37;39.77;;;0.40;99.90;;;;;;10449197;28;20348;-91
2023/01/19 16:19:29;;;;;;;61.47;37.83;;;0.30;99.90;;;;;;10447614;28;20299;-90
2023/01/19 16:24:31;;;;;;;51.77;34.27;;;0.10;99.90;;;;;;10447411;28;20897;-90
2023/01/19 16:29:34;;;;;;;57.60;35.90;;;-0.10;99.90;;;;;;10435707;28;20227;-91
2023/01/19 16:34:36;;;;;;;52.87;33.33;;;0.10;99.90;;;;;;10451450;28;20230;-91
2023/01/19 16:39:39;;;;;;;52.10;31.37;;;-0.10;99.90;;;;;;10452296;28;20240;-92
2023/01/19 16:44:42;;;;;;;83.03;55.07;;;0.00;99.90;;;;;;10456824;28;20695;-89
2023/01/19 16:49:44;;;;;;;64.97;40.20;;;-0.40;99.90;;;;;;10456455;28;20228;-88
2023/01/19 16:54:47;;;;;;;55.90;33.87;;;-0.50;99.90;;;;;;10479876;28;20202;-90
2023/01/19 16:59:50;;;;;;;51.60;32.43;;;-0.20;99.90;;;;;;10455700;28;20218;-90
2023/01/19 17:04:53;;;;;;;50.30;32.37;;;-0.10;99.90;;;;;;10458695;28;20226;-89
2023/01/19 17:09:56;;;;;;;44.03;30.87;;;-0.20;99.90;;;;;;10432493;28;20253;-89
2023/01/19 17:14:59;;;;;;;45.10;30.90;;;-0.10;99.90;;;;;;10449268;28;20707;-90
2023/01/19 17:20:02;;;;;;;47.20;31.30;;;-0.10;99.90;;;;;;10448409;28;20229;-89
2023/01/19 17:25:05;;;;;;;48.47;32.27;;;-0.10;99.90;;;;;;10449372;28;20274;-90
2023/01/19 17:30:08;;;;;;;47.33;30.57;;;-0.20;99.90;;;;;;10438415;28;20263;-88
2023/01/19 17:35:11;;;;;;;46.23;30.23;;;-0.10;99.90;;;;;;10451936;28;20587;-90
2023/01/19 17:40:14;;;;;;;49.77;32.63;;;-0.30;99.90;;;;;;10469498;28;20268;-90
2023/01/19 17:45:17;;;;;;;55.00;32.87;;;-0.40;99.90;;;;;;10438930;28;20219;-89
2023/01/19 17:50:20;;;;;;;48.20;31.43;;;-0.40;99.90;;;;;;10473151;28;20214;-90
2023/01/19 17:55:23;;;;;;;45.70;30.60;;;-0.40;99.90;;;;;;10467653;28;20259;-90
2023/01/19 18:00:25;;;;;;;56.93;37.23;;;-0.20;99.90;;;;;;10416039;28;20242;-88
2023/01/19 18:05:28;;;;;;;65.57;40.43;;;-0.30;99.90;;;;;;10445993;28;20219;-89
2023/01/19 18:10:30;;;;;;;76.07;45.13;;;-0.50;99.90;;;;;;10456660;28;20215;-90
2023/01/19 18:15:33;;;;;;;72.23;42.27;;;-0.40;99.90;;;;;;10438327;28;20272;-90
2023/01/19 18:20:38;;;;;;;76.30;43.77;;;-0.20;99.90;;;;;;10447702;28;20237;-90
2023/01/19 18:25:42;;;;;;;83.13;51.40;;;0.40;99.90;;;;;;10465305;28;20283;-90
2023/01/19 18:30:44;;;;;;;93.47;59.27;;;1.20;99.90;;;;;;10448168;28;20202;-88
2023/01/19 18:35:47;;;;;;;75.13;44.40;;;0.70;99.90;;;;;;10466479;28;20228;-90
2023/01/19 18:41:04;;;;;;;82.10;48.80;;;2.30;99.90;;;;;;10487618;28;20210;-92
2023/01/19 18:46:08;;;;;;;77.70;48.67;;;2.80;99.90;;;;;;10475711;28;20203;-92
2023/01/19 18:51:14;;;;;;;75.17;47.23;;;2.40;99.90;;;;;;10450984;28;20203;-93
2023/01/19 18:56:16;;;;;;;68.20;42.87;;;1.90;99.90;;;;;;10460371;28;20203;-94
2023/01/19 19:01:27;;;;;;;129.70;71.37;;;0.80;99.90;;;;;;10481670;28;20237;-93
2023/01/19 19:06:34;;;;;;;101.40;56.70;;;1.40;99.90;;;;;;10468208;28;20206;-94
2023/01/19 19:11:37;;;;;;;172.33;115.57;;;1.80;99.90;;;;;;10473833;28;20210;-94
2023/01/19 19:16:40;;;;;;;161.47;94.87;;;;;;;;;;10446081;28;20737;-94
2023/01/19 19:21:43;;;;;;;159.77;85.87;;;-0.60;99.90;;;;;;10464881;28;20207;-94
2023/01/19 19:26:46;;;;;;;150.20;81.33;;;;;;;;;;10460262;28;20203;-93
2023/01/19 19:31:49;;;;;;;150.07;80.33;;;-2.50;99.90;;;;;;10441724;28;20210;-93
2023/01/19 19:36:52;;;;;;;145.77;75.60;;;;;;;;;;10457952;28;20679;-93
2023/01/19 19:41:54;;;;;;;188.77;100.80;;;-2.80;99.90;;;;;;10465017;28;20229;-94
2023/01/19 19:46:57;;;;;;;214.67;113.00;;;-2.90;99.90;;;;;;10438878;28;20204;-92
2023/01/19 19:52:00;;;;;;;59.03;30.30;;;-3.00;99.90;;;;;;10454132;28;20217;-95
2023/01/19 19:57:03;;;;;;;58.00;30.73;;;-3.10;99.90;;;;;;10106753;28;9999683;-95
2023/01/19 20:02:06;;;;;;;81.40;42.43;;;-2.50;99.90;;;;;;10458391;28;20251;-95
2023/01/19 20:07:09;;;;;;;82.07;44.70;;;-1.90;99.90;;;;;;10498134;28;20556;-95
2023/01/19 20:12:12;;;;;;;75.13;41.00;;;-1.20;99.90;;;;;;10441283;28;20203;-94
2023/01/19 20:17:15;;;;;;;72.47;40.73;;;-0.30;99.90;;;;;;10458702;28;20230;-94
2023/01/19 20:22:18;;;;;;;148.17;57.20;;;0.30;99.90;;;;;;10457444;28;20604;-95
2023/01/19 20:27:20;;;;;;;105.87;55.33;;;1.70;99.90;;;;;;10443913;28;20254;-95
2023/01/19 20:32:24;;;;;;;91.47;53.90;;;2.60;99.90;;;;;;10456217;28;20215;-94
2023/01/19 20:37:26;;;;;;;104.23;57.97;;;2.60;99.90;;;;;;10444243;28;20234;-90
2023/01/19 20:42:29;;;;;;;92.83;49.90;;;;;;;;;;10454596;28;20306;-92
2023/01/19 20:47:32;;;;;;;104.10;47.57;;;2.90;99.90;;;;;;10432723;28;20207;-91
2023/01/19 20:52:35;;;;;;;118.90;52.87;;;4.30;99.90;;;;;;10468616;28;20246;-89
2023/01/19 20:57:37;;;;;;;115.47;67.17;;;4.80;99.90;;;;;;10456809;28;20234;-88
2023/01/19 21:02:40;;;;;;;110.73;62.87;;;2.60;99.90;;;;;;10466731;28;20267;-89
2023/01/19 21:07:43;;;;;;;104.97;59.07;;;0.90;99.90;;;;;;10450839;28;20314;-91
2023/01/19 21:12:46;;;;;;;98.07;57.33;;;0.70;99.90;;;;;;10449131;28;20239;-91
2023/01/19 21:17:49;;;;;;;97.87;57.20;;;0.80;99.90;;;;;;10451237;28;20719;-90
2023/01/19 21:22:51;;;;;;;132.53;68.50;;;-0.20;99.90;;;;;;10449376;28;20252;-92
2023/01/19 21:28:09;;;;;;;136.00;71.33;;;-0.20;99.90;;;;;;10405710;28;20220;-92
2023/01/19 21:33:12;;;;;;;123.73;65.33;;;-0.50;99.90;;;;;;10450390;28;20726;-92
2023/01/19 21:38:15;;;;;;;128.67;67.00;;;0.60;99.90;;;;;;10465536;28;20287;-91
2023/01/19 21:43:19;;;;;;;131.07;72.17;;;0.40;99.90;;;;;;10106368;28;9999863;-90
2023/01/19 21:48:21;;;;;;;146.73;74.93;;;0.10;99.90;;;;;;10450966;28;20497;-90
2023/01/19 21:53:24;;;;;;;138.07;76.00;;;-0.30;99.90;;;;;;10432022;28;20280;-91
2023/01/19 21:58:27;;;;;;;126.40;69.17;;;-0.50;99.90;;;;;;10447026;28;20284;-91
2023/01/19 22:03:29;;;;;;;107.17;62.53;;;-0.40;99.90;;;;;;10471432;28;20257;-91
2023/01/19 22:08:33;;;;;;;120.83;63.17;;;-0.30;99.90;;;;;;10470613;28;20228;-90
2023/01/19 22:13:37;;;;;;;127.67;72.60;;;-0.80;99.90;;;;;;10435282;28;20311;-91
2023/01/19 22:18:42;;;;;;;107.73;62.60;;;-0.80;99.90;;;;;;10444483;28;20278;-91
2023/01/19 22:23:50;;;;;;;104.63;57.60;;;-1.00;99.90;;;;;;10445436;28;20267;-92
2023/01/19 22:28:58;;;;;;;85.83;48.77;;;-0.30;99.90;;;;;;10425981;28;20253;-91
2023/01/19 22:34:00;;;;;;;83.90;46.63;;;-0.30;99.90;;;;;;10428578;28;20277;-92
2023/01/19 22:39:05;;;;;;;75.87;44.07;;;-0.40;99.90;;;;;;10432871;28;20225;-90
2023/01/19 22:44:13;;;;;;;92.17;45.47;;;0.10;99.90;;;;;;10450573;28;20704;-91
2023/01/19 22:49:17;;;;;;;93.10;48.00;;;0.70;99.90;;;;;;10469568;28;20235;-90
2023/01/19 22:54:21;;;;;;;96.07;49.30;;;0.70;99.90;;;;;;10430801;28;20204;-90
2023/01/19 22:59:24;;;;;;;90.93;44.53;;;0.10;99.90;;;;;;10455910;28;20233;-90
2023/01/19 23:04:26;;;;;;;87.47;47.83;;;-0.20;99.90;;;;;;10453858;28;20255;-91
2023/01/19 23:09:29;;;;;;;83.10;45.53;;;0.20;99.90;;;;;;10455464;28;20233;-90
2023/01/19 23:14:32;;;;;;;75.97;43.53;;;0.10;99.90;;;;;;10454021;28;20283;-91
2023/01/19 23:19:34;;;;;;;77.63;43.23;;;-0.20;99.90;;;;;;10413449;28;20667;-90
2023/01/19 23:24:37;;;;;;;70.10;41.80;;;-0.10;99.90;;;;;;10481222;28;20261;-90
2023/01/19 23:29:39;;;;;;;76.23;38.40;;;-0.30;99.90;;;;;;10495691;28;20257;-90
2023/01/19 23:34:42;;;;;;;72.07;40.33;;;-0.40;99.90;;;;;;10484659;28;20250;-91
2023/01/19 23:39:44;;;;;;;81.13;43.80;;;0.20;99.90;;;;;;10452617;28;20306;-91
2023/01/19 23:44:47;;;;;;;80.23;44.67;;;0.00;99.90;;;;;;10435864;28;20304;-90
2023/01/19 23:49:50;;;;;;;84.27;45.57;;;-0.40;99.90;;;;;;10453631;28;20242;-91
2023/01/19 23:54:52;;;;;;;77.37;41.80;;;-0.90;99.90;;;;;;10452531;28;20252;-89
2023/01/19 23:59:55;;;;;;;99.40;48.20;;;-1.10;99.90;;;;;;10452723;28;20691;-90
